Terminal Aerodrome Forecast
Issued by NWS

Home | Current Version | Previous Version | Text Only | Print | Product List | Glossary On
Versions: 1 2 3 4 5 6 7 8 9 10 11 12 13 14 15
770
FTUS42 KGSP 022320
TAFGMU
TAF
KGMU 022320Z 0300/0324 25003KT P6SM FEW250
     FM030500 34003KT P6SM SCT200
     FM031700 03004KT P6SM BKN150=

USA.gov is the U.S. government's official web portal to all federal, state and local government web resources and services.